createdAt,value
2023-05-09T00:00:32.745Z,2.60
2023-05-09T00:02:59.878Z,2.80
2023-05-09T00:05:27.153Z,2.40
2023-05-09T00:07:54.202Z,2.70
2023-05-09T00:10:21.403Z,2.87
2023-05-09T00:12:49.419Z,2.43
2023-05-09T00:15:16.631Z,2.53
2023-05-09T00:17:45.700Z,2.53
2023-05-09T00:20:12.947Z,3.07
2023-05-09T00:22:41.055Z,2.60
2023-05-09T00:25:09.000Z,2.70
2023-05-09T00:27:36.188Z,2.50
2023-05-09T00:30:04.022Z,2.53
2023-05-09T00:32:32.054Z,2.80
2023-05-09T00:34:59.464Z,2.50
2023-05-09T00:37:26.718Z,2.70
2023-05-09T00:39:53.768Z,2.77
2023-05-09T00:42:21.175Z,2.70
2023-05-09T00:44:48.208Z,2.53
2023-05-09T00:47:15.468Z,2.70
2023-05-09T00:49:42.560Z,2.70
2023-05-09T00:52:09.647Z,2.50
2023-05-09T00:54:36.706Z,2.70
2023-05-09T00:57:03.906Z,2.87
2023-05-09T00:59:30.972Z,2.57
2023-05-09T01:01:58.019Z,2.40
2023-05-09T01:04:25.543Z,2.53
2023-05-09T01:07:12.910Z,2.60
2023-05-09T01:09:58.853Z,2.47
2023-05-09T01:12:46.823Z,2.70
2023-05-09T01:15:32.782Z,2.77
2023-05-09T01:18:16.048Z,2.73
2023-05-09T01:20:54.210Z,2.70
2023-05-09T01:23:33.442Z,2.80
2023-05-09T01:26:08.433Z,2.90
2023-05-09T01:28:38.427Z,2.57
2023-05-09T01:31:06.548Z,2.77
2023-05-09T01:33:34.677Z,2.80
2023-05-09T01:36:04.611Z,2.80
2023-05-09T01:38:32.797Z,2.83
2023-05-09T01:41:00.831Z,2.47
2023-05-09T01:43:29.291Z,2.70
2023-05-09T01:45:56.902Z,2.90
2023-05-09T01:48:30.095Z,2.90
2023-05-09T01:50:58.265Z,2.77
2023-05-09T01:53:26.393Z,2.80
2023-05-09T01:55:53.592Z,2.73
2023-05-09T01:58:21.682Z,2.93
2023-05-09T02:00:49.345Z,2.77
2023-05-09T02:03:16.706Z,2.80
2023-05-09T02:05:43.816Z,3.20
2023-05-09T02:08:11.353Z,3.00
2023-05-09T02:10:38.519Z,2.83
2023-05-09T02:13:05.776Z,2.60
2023-05-09T02:15:33.191Z,2.83
2023-05-09T02:18:00.687Z,3.10
2023-05-09T02:20:27.783Z,2.80
2023-05-09T02:22:54.829Z,2.63
2023-05-09T02:25:22.288Z,2.93
2023-05-09T02:27:49.484Z,2.60
2023-05-09T02:30:20.558Z,2.97
2023-05-09T02:32:49.872Z,2.90
2023-05-09T02:35:17.457Z,3.00
2023-05-09T02:37:45.424Z,2.87
2023-05-09T02:40:13.269Z,2.83
2023-05-09T02:42:40.438Z,2.87
2023-05-09T02:45:09.216Z,2.87
2023-05-09T02:47:36.386Z,2.70
2023-05-09T02:50:03.875Z,2.77
2023-05-09T02:52:31.055Z,2.90
2023-05-09T02:54:58.822Z,2.87
2023-05-09T02:57:25.890Z,2.80
2023-05-09T02:59:53.048Z,2.50
2023-05-09T03:02:20.564Z,2.67
2023-05-09T03:04:47.674Z,2.70
2023-05-09T03:07:14.723Z,2.97
2023-05-09T03:09:42.131Z,2.57
2023-05-09T03:12:09.324Z,2.60
2023-05-09T03:14:36.472Z,2.73
2023-05-09T03:17:03.583Z,2.63
2023-05-09T03:19:30.810Z,2.60
2023-05-09T03:21:57.893Z,2.40
2023-05-09T03:24:28.122Z,2.47
2023-05-09T03:26:55.575Z,2.60
2023-05-09T03:29:22.732Z,2.60
2023-05-09T03:31:50.202Z,2.77
2023-05-09T03:34:17.264Z,2.50
2023-05-09T03:36:44.503Z,2.70
2023-05-09T03:39:11.611Z,2.50
2023-05-09T03:41:38.767Z,2.70
2023-05-09T03:44:06.054Z,2.67
2023-05-09T03:46:33.146Z,2.53
2023-05-09T03:49:00.205Z,2.53
2023-05-09T03:51:27.330Z,2.97
2023-05-09T03:53:54.431Z,2.40
2023-05-09T03:56:22.303Z,2.57
2023-05-09T03:58:49.411Z,2.47
2023-05-09T04:01:17.049Z,2.43
2023-05-09T04:03:44.314Z,2.73
2023-05-09T04:06:11.516Z,2.63
2023-05-09T04:08:38.717Z,2.50
2023-05-09T04:11:06.065Z,2.43
2023-05-09T04:13:34.119Z,2.30
2023-05-09T04:16:01.948Z,2.37
2023-05-09T04:18:29.267Z,2.40
2023-05-09T04:20:56.283Z,2.47
2023-05-09T04:23:24.090Z,2.50
2023-05-09T04:25:52.064Z,2.30
2023-05-09T04:28:19.153Z,2.37
2023-05-09T04:30:46.640Z,2.60
2023-05-09T04:33:13.908Z,2.53
2023-05-09T04:35:41.278Z,2.67
2023-05-09T04:38:08.691Z,2.50
2023-05-09T04:40:36.267Z,2.30
2023-05-09T04:43:04.106Z,2.20
2023-05-09T04:45:31.806Z,2.10
2023-05-09T04:47:58.984Z,2.30
2023-05-09T04:50:26.112Z,2.23
2023-05-09T04:52:53.194Z,2.23
2023-05-09T04:55:20.545Z,2.37
2023-05-09T04:57:47.653Z,2.27
2023-05-09T05:00:16.611Z,2.27
2023-05-09T05:02:43.674Z,2.30
2023-05-09T05:05:21.831Z,2.30
2023-05-09T05:07:53.359Z,2.50
2023-05-09T05:10:20.550Z,2.60
2023-05-09T05:12:47.720Z,2.20
2023-05-09T05:15:15.297Z,2.30
2023-05-09T05:17:42.531Z,2.37
2023-05-09T05:20:10.607Z,2.50
2023-05-09T05:22:38.055Z,2.57
2023-05-09T05:25:05.419Z,2.30
2023-05-09T05:27:32.568Z,2.40
2023-05-09T05:29:59.992Z,2.30
2023-05-09T05:32:27.083Z,2.47
2023-05-09T05:34:54.124Z,2.33
2023-05-09T05:37:21.564Z,2.30
2023-05-09T05:39:48.916Z,2.43
2023-05-09T05:42:15.930Z,2.40
2023-05-09T05:44:42.988Z,2.37
2023-05-09T05:47:10.040Z,2.53
2023-05-09T05:49:37.158Z,2.37
2023-05-09T05:52:04.667Z,2.30
2023-05-09T05:54:31.713Z,2.20
2023-05-09T05:56:58.785Z,2.40
2023-05-09T05:59:26.184Z,2.20
2023-05-09T06:01:53.331Z,2.30
2023-05-09T06:04:20.502Z,2.70
2023-05-09T06:06:47.670Z,2.50
2023-05-09T06:09:14.922Z,2.57
2023-05-09T06:11:41.973Z,2.40
2023-05-09T06:14:09.279Z,2.30
2023-05-09T06:16:36.397Z,2.50
2023-05-09T06:19:03.525Z,2.53
2023-05-09T06:21:31.007Z,1.97
2023-05-09T06:24:09.797Z,2.60
2023-05-09T06:26:41.572Z,2.40
2023-05-09T06:29:08.787Z,2.20
2023-05-09T06:31:38.460Z,2.40
2023-05-09T06:34:06.458Z,2.60
2023-05-09T06:36:33.667Z,2.60
2023-05-09T06:39:00.892Z,2.20
2023-05-09T06:41:28.119Z,2.50
2023-05-09T06:43:55.171Z,2.73
2023-05-09T06:46:22.229Z,2.50
2023-05-09T06:48:49.365Z,2.33
2023-05-09T06:51:16.893Z,2.37
2023-05-09T06:53:43.993Z,2.40
2023-05-09T06:56:11.285Z,2.50
2023-05-09T06:58:38.476Z,2.50
2023-05-09T07:01:05.674Z,2.30
2023-05-09T07:03:33.399Z,2.60
2023-05-09T07:06:00.479Z,2.60
2023-05-09T07:08:27.658Z,2.40
2023-05-09T07:10:55.161Z,2.50
2023-05-09T07:13:22.290Z,2.47
2023-05-09T07:15:49.372Z,2.50
2023-05-09T07:18:16.827Z,2.23
2023-05-09T07:20:43.923Z,2.40
2023-05-09T07:23:11.290Z,2.33
2023-05-09T07:25:38.673Z,2.33
2023-05-09T07:28:06.677Z,2.30
2023-05-09T07:30:33.729Z,2.27
2023-05-09T07:33:01.772Z,2.63
2023-05-09T07:35:28.953Z,2.27
2023-05-09T07:37:56.028Z,2.17
2023-05-09T07:40:23.428Z,2.77
2023-05-09T07:42:51.566Z,2.60
2023-05-09T07:45:19.940Z,2.43
2023-05-09T07:47:48.741Z,2.47
2023-05-09T07:50:16.984Z,2.53
2023-05-09T07:52:44.054Z,2.63
2023-05-09T07:55:12.729Z,2.27
2023-05-09T07:57:40.014Z,2.40
2023-05-09T08:00:08.772Z,2.50
2023-05-09T08:02:36.353Z,2.13
2023-05-09T08:05:03.557Z,2.47
2023-05-09T08:07:30.621Z,2.40
2023-05-09T08:09:58.035Z,2.35
2023-05-09T08:12:25.200Z,2.60
2023-05-09T08:14:52.286Z,2.20
2023-05-09T08:17:19.852Z,2.50
2023-05-09T08:19:46.994Z,2.35
2023-05-09T08:22:20.631Z,2.40
2023-05-09T08:24:47.991Z,2.40
2023-05-09T08:27:15.569Z,2.40
2023-05-09T08:29:43.385Z,2.30
2023-05-09T08:32:10.532Z,2.50
2023-05-09T08:34:37.705Z,2.13
2023-05-09T08:37:05.247Z,2.30
2023-05-09T08:39:34.790Z,2.40
2023-05-09T08:42:02.679Z,2.40
2023-05-09T08:44:31.395Z,2.38
2023-05-09T08:47:02.332Z,2.30
2023-05-09T08:49:29.825Z,2.45
2023-05-09T08:51:58.262Z,2.22
2023-05-09T08:54:25.984Z,2.10
2023-05-09T08:56:53.156Z,2.40
2023-05-09T08:59:20.624Z,2.13
2023-05-09T09:01:48.205Z,2.30
2023-05-09T09:04:15.491Z,2.23
2023-05-09T09:06:43.803Z,2.13
2023-05-09T09:09:39.769Z,2.37
2023-05-09T09:12:08.845Z,2.77
2023-05-09T09:14:38.864Z,2.40
2023-05-09T09:17:06.724Z,2.30
2023-05-09T09:19:34.782Z,2.00
2023-05-09T09:22:04.821Z,2.40
2023-05-09T09:24:32.263Z,2.40
2023-05-09T09:27:05.676Z,2.40
2023-05-09T09:29:33.721Z,2.17
2023-05-09T09:32:04.684Z,2.30
2023-05-09T09:34:32.332Z,2.50
2023-05-09T09:36:59.686Z,2.27
2023-05-09T09:39:26.733Z,2.33
2023-05-09T09:41:54.681Z,2.17
2023-05-09T09:44:22.611Z,2.33
2023-05-09T09:46:51.116Z,2.17
2023-05-09T09:49:19.933Z,2.20
2023-05-09T09:51:50.773Z,2.17
2023-05-09T09:54:17.907Z,2.20
2023-05-09T09:56:46.170Z,2.33
2023-05-09T09:59:20.003Z,2.13
2023-05-09T10:01:56.297Z,2.10
2023-05-09T10:04:23.663Z,1.97
2023-05-09T10:06:54.845Z,2.00
2023-05-09T10:09:22.955Z,2.10
2023-05-09T10:11:52.124Z,2.00
2023-05-09T10:14:20.229Z,2.20
2023-05-09T10:16:48.361Z,2.00
2023-05-09T10:19:18.093Z,2.07
2023-05-09T10:21:46.814Z,2.00
2023-05-09T10:24:14.159Z,2.10
2023-05-09T10:26:44.344Z,1.90
2023-05-09T10:29:13.269Z,2.13
2023-05-09T10:31:41.695Z,2.47
2023-05-09T10:34:11.068Z,1.80
2023-05-09T10:36:38.398Z,2.00
2023-05-09T10:39:06.076Z,2.00
2023-05-09T10:41:33.337Z,2.10
2023-05-09T10:44:00.735Z,2.10
2023-05-09T10:46:28.358Z,2.07
2023-05-09T10:48:56.040Z,1.87
2023-05-09T10:51:24.740Z,2.07
2023-05-09T10:53:52.289Z,2.53
2023-05-09T10:56:26.429Z,1.70
2023-05-09T10:58:54.552Z,2.07
2023-05-09T11:01:32.631Z,2.00
2023-05-09T11:04:00.556Z,2.00
2023-05-09T11:06:43.759Z,2.00
2023-05-09T11:09:29.488Z,1.90
2023-05-09T11:11:56.950Z,2.00
2023-05-09T11:14:34.454Z,2.07
2023-05-09T11:17:03.705Z,1.90
2023-05-09T11:19:38.488Z,2.00
2023-05-09T11:22:12.651Z,1.67
2023-05-09T11:24:40.088Z,1.90
2023-05-09T11:27:15.574Z,2.20
2023-05-09T11:29:52.393Z,2.00
2023-05-09T11:32:20.148Z,1.70
2023-05-09T11:34:47.841Z,1.80
2023-05-09T11:37:17.807Z,2.00
2023-05-09T11:39:58.158Z,1.87
2023-05-09T11:42:26.778Z,1.93
2023-05-09T11:44:53.942Z,1.90
2023-05-09T11:47:21.659Z,2.00
2023-05-09T11:49:52.126Z,1.90
2023-05-09T11:52:20.796Z,1.80
2023-05-09T11:54:48.517Z,2.00
2023-05-09T11:57:18.270Z,1.90
2023-05-09T11:59:45.541Z,1.80
2023-05-09T12:02:12.804Z,2.10
2023-05-09T12:04:40.337Z,1.90
2023-05-09T12:07:07.550Z,1.73
2023-05-09T12:09:38.057Z,1.80
2023-05-09T12:12:14.597Z,1.80
2023-05-09T12:14:42.318Z,1.77
2023-05-09T12:17:09.773Z,1.97
2023-05-09T12:19:37.379Z,1.97
2023-05-09T12:22:06.713Z,1.70
2023-05-09T12:24:38.983Z,1.83
2023-05-09T12:27:07.874Z,1.87
2023-05-09T12:29:35.574Z,1.80
2023-05-09T12:32:03.115Z,1.77
2023-05-09T12:34:30.231Z,2.17
2023-05-09T12:36:59.906Z,1.60
2023-05-09T12:39:27.249Z,1.77
2023-05-09T12:42:01.499Z,1.87
2023-05-09T12:44:30.045Z,1.63
2023-05-09T12:46:58.441Z,1.80
2023-05-09T12:49:25.633Z,1.60
2023-05-09T12:51:53.872Z,1.60
2023-05-09T12:54:22.423Z,1.90
2023-05-09T12:56:52.043Z,1.80
2023-05-09T12:59:26.936Z,1.83
2023-05-09T13:01:57.805Z,1.93
2023-05-09T13:04:25.899Z,1.80
2023-05-09T13:06:57.609Z,2.00
2023-05-09T13:09:25.709Z,1.80
2023-05-09T13:11:53.107Z,1.70
2023-05-09T13:14:24.027Z,2.07
2023-05-09T13:16:51.102Z,1.87
2023-05-09T13:19:18.215Z,2.00
2023-05-09T13:21:45.694Z,1.90
2023-05-09T13:24:12.778Z,1.90
2023-05-09T13:26:39.955Z,1.80
2023-05-09T13:29:07.857Z,2.20
2023-05-09T13:31:35.009Z,1.90
2023-05-09T13:34:02.089Z,2.10
2023-05-09T13:36:29.236Z,2.10
2023-05-09T13:38:56.288Z,1.90
2023-05-09T13:41:23.938Z,2.00
2023-05-09T13:43:51.620Z,2.07
2023-05-09T13:46:18.890Z,1.90
2023-05-09T13:48:47.560Z,2.13
2023-05-09T13:51:15.236Z,2.30
2023-05-09T13:53:42.349Z,1.87
2023-05-09T13:56:09.630Z,2.20
2023-05-09T13:58:37.292Z,2.10
2023-05-09T14:01:04.472Z,2.00
2023-05-09T14:03:31.801Z,2.50
2023-05-09T14:06:00.011Z,1.93
2023-05-09T14:08:27.176Z,1.90
2023-05-09T14:10:54.625Z,2.30
2023-05-09T14:13:22.261Z,2.40
2023-05-09T14:15:49.527Z,2.20
2023-05-09T14:18:20.096Z,2.20
2023-05-09T14:20:48.488Z,2.40
2023-05-09T14:23:15.582Z,2.20
2023-05-09T14:25:42.739Z,2.27
2023-05-09T14:28:09.934Z,2.33
2023-05-09T14:30:37.051Z,2.23
2023-05-09T14:33:04.190Z,2.23
2023-05-09T14:35:33.903Z,2.20
2023-05-09T14:38:01.551Z,2.00
2023-05-09T14:40:32.102Z,2.30
2023-05-09T14:43:02.741Z,2.40
2023-05-09T14:45:30.403Z,2.17
2023-05-09T14:47:57.701Z,2.17
2023-05-09T14:50:24.833Z,2.20
2023-05-09T14:52:52.071Z,2.13
2023-05-09T14:55:19.425Z,2.47
2023-05-09T14:57:46.739Z,2.03
2023-05-09T15:00:21.178Z,2.30
2023-05-09T15:02:50.292Z,2.37
2023-05-09T15:05:17.643Z,2.23
2023-05-09T15:07:44.704Z,2.50
2023-05-09T15:10:12.096Z,2.10
2023-05-09T15:12:39.154Z,2.37
2023-05-09T15:15:12.884Z,2.10
2023-05-09T15:17:39.961Z,2.30
2023-05-09T15:20:07.638Z,2.17
2023-05-09T15:22:34.875Z,2.40
2023-05-09T15:25:03.999Z,2.30
2023-05-09T15:27:32.494Z,1.97
2023-05-09T15:29:59.909Z,2.20
2023-05-09T15:32:27.116Z,2.17
2023-05-09T15:34:54.206Z,2.30
2023-05-09T15:37:21.640Z,2.40
2023-05-09T15:39:48.685Z,2.53
2023-05-09T15:42:16.556Z,2.60
2023-05-09T15:44:43.919Z,2.60
2023-05-09T15:47:11.516Z,2.50
2023-05-09T15:49:38.661Z,2.40
2023-05-09T15:52:06.477Z,2.40
2023-05-09T15:54:34.000Z,2.40
2023-05-09T15:57:01.170Z,2.37
2023-05-09T15:59:28.326Z,2.53
2023-05-09T16:01:55.980Z,2.50
2023-05-09T16:04:24.276Z,2.60
2023-05-09T16:06:52.235Z,2.50
2023-05-09T16:09:19.436Z,2.53
2023-05-09T16:11:46.525Z,2.57
2023-05-09T16:14:14.248Z,2.90
2023-05-09T16:16:42.672Z,2.70
2023-05-09T16:19:09.879Z,2.43
2023-05-09T16:21:37.818Z,2.80
2023-05-09T16:24:05.120Z,2.67
2023-05-09T16:26:32.258Z,2.63
2023-05-09T16:28:59.655Z,2.50
2023-05-09T16:31:27.303Z,2.43
2023-05-09T16:33:54.900Z,2.70
2023-05-09T16:36:22.175Z,2.63
2023-05-09T16:38:49.304Z,3.00
2023-05-09T16:41:17.076Z,2.70
2023-05-09T16:43:44.195Z,2.47
2023-05-09T16:46:11.313Z,2.40
2023-05-09T16:48:38.452Z,2.80
2023-05-09T16:51:05.655Z,2.53
2023-05-09T16:53:32.733Z,2.60
2023-05-09T16:56:00.177Z,2.60
2023-05-09T16:58:27.508Z,2.60
2023-05-09T17:00:55.232Z,2.70
2023-05-09T17:03:22.377Z,2.60
2023-05-09T17:05:49.587Z,2.40
2023-05-09T17:08:16.734Z,2.57
2023-05-09T17:10:44.078Z,2.60
2023-05-09T17:13:11.561Z,2.63
2023-05-09T17:15:38.966Z,2.50
2023-05-09T17:18:06.431Z,2.47
2023-05-09T17:20:33.819Z,2.80
2023-05-09T17:23:00.972Z,2.77
2023-05-09T17:25:28.098Z,2.77
2023-05-09T17:27:55.396Z,2.40
2023-05-09T17:30:23.345Z,2.53
2023-05-09T17:32:50.715Z,2.77
2023-05-09T17:35:20.017Z,2.20
2023-05-09T17:37:47.067Z,1.97
2023-05-09T17:40:14.883Z,2.40
2023-05-09T17:42:42.313Z,2.27
2023-05-09T17:45:12.255Z,2.40
2023-05-09T17:47:39.607Z,2.30
2023-05-09T17:50:07.185Z,2.37
2023-05-09T17:52:34.593Z,2.13
2023-05-09T17:55:02.140Z,2.60
2023-05-09T17:57:29.465Z,2.40
2023-05-09T17:59:56.730Z,2.30
2023-05-09T18:02:24.076Z,2.30
2023-05-09T18:04:52.237Z,2.50
2023-05-09T18:07:19.338Z,2.40
2023-05-09T18:09:47.269Z,2.10
2023-05-09T18:12:14.412Z,2.33
2023-05-09T18:14:41.857Z,2.40
2023-05-09T18:17:08.909Z,2.33
2023-05-09T18:19:37.255Z,2.50
2023-05-09T18:22:04.396Z,2.70
2023-05-09T18:24:31.456Z,2.33
2023-05-09T18:26:58.690Z,2.33
2023-05-09T18:29:25.759Z,2.47
2023-05-09T18:31:53.202Z,2.37
2023-05-09T18:34:20.335Z,2.43
2023-05-09T18:36:47.498Z,2.30
2023-05-09T18:39:15.023Z,2.10
2023-05-09T18:41:42.439Z,2.50
2023-05-09T18:44:09.545Z,2.37
2023-05-09T18:46:37.872Z,2.93
2023-05-09T18:49:05.071Z,2.47
2023-05-09T18:51:33.874Z,2.37
2023-05-09T18:54:00.899Z,2.60
2023-05-09T18:56:28.132Z,2.50
2023-05-09T18:58:55.497Z,2.40
2023-05-09T19:01:24.254Z,2.50
2023-05-09T19:03:54.257Z,2.50
2023-05-09T19:06:22.238Z,2.50
2023-05-09T19:08:49.337Z,2.40
2023-05-09T19:11:16.822Z,2.67
2023-05-09T19:13:48.473Z,2.43
2023-05-09T19:16:17.185Z,2.30
2023-05-09T19:18:44.340Z,2.60
2023-05-09T19:21:13.232Z,2.53
2023-05-09T19:23:40.306Z,2.20
2023-05-09T19:26:08.361Z,2.50
2023-05-09T19:28:35.645Z,2.20
2023-05-09T19:31:03.131Z,2.80
2023-05-09T19:33:30.269Z,2.40
2023-05-09T19:35:57.359Z,2.13
2023-05-09T19:38:24.912Z,2.27
2023-05-09T19:40:52.062Z,2.83
2023-05-09T19:43:19.157Z,2.30
2023-05-09T19:45:46.359Z,2.30
2023-05-09T19:48:15.549Z,2.40
2023-05-09T19:50:43.217Z,2.60
2023-05-09T19:53:10.456Z,2.30
2023-05-09T19:55:37.595Z,2.47
2023-05-09T19:58:04.679Z,2.03
2023-05-09T20:00:32.200Z,2.40
2023-05-09T20:02:59.407Z,2.50
2023-05-09T20:05:28.050Z,2.50
2023-05-09T20:07:55.330Z,2.30
2023-05-09T20:10:22.399Z,2.20
2023-05-09T20:12:49.715Z,2.50
2023-05-09T20:15:17.227Z,2.60
2023-05-09T20:17:44.520Z,2.53
2023-05-09T20:20:11.988Z,2.50
2023-05-09T20:22:39.250Z,2.73
2023-05-09T20:25:06.810Z,2.70
2023-05-09T20:27:35.385Z,2.30
2023-05-09T20:30:03.586Z,2.27
2023-05-09T20:32:31.336Z,2.33
2023-05-09T20:34:58.398Z,2.30
2023-05-09T20:37:25.479Z,2.43
2023-05-09T20:39:52.517Z,2.40
2023-05-09T20:42:19.567Z,2.43
2023-05-09T20:44:47.724Z,2.23
2023-05-09T20:47:14.844Z,2.20
2023-05-09T20:49:41.882Z,2.70
2023-05-09T20:52:08.958Z,2.40
2023-05-09T20:54:35.995Z,2.50
2023-05-09T20:57:03.119Z,2.33
2023-05-09T20:59:30.596Z,2.70
2023-05-09T21:01:57.874Z,2.70
2023-05-09T21:04:25.031Z,2.30
2023-05-09T21:06:52.462Z,2.20
2023-05-09T21:09:19.497Z,2.40
2023-05-09T21:11:46.574Z,2.43
2023-05-09T21:14:14.031Z,2.50
2023-05-09T21:16:43.674Z,2.50
2023-05-09T21:19:10.858Z,2.40
2023-05-09T21:21:38.024Z,2.50
2023-05-09T21:24:08.946Z,2.50
2023-05-09T21:26:36.415Z,2.30
2023-05-09T21:29:03.713Z,2.30
2023-05-09T21:31:31.241Z,2.40
2023-05-09T21:33:59.250Z,2.40
2023-05-09T21:36:26.511Z,2.47
2023-05-09T21:38:53.588Z,2.13
2023-05-09T21:41:21.841Z,2.47
2023-05-09T21:43:49.323Z,2.30
2023-05-09T21:46:16.452Z,2.37
2023-05-09T21:48:43.513Z,2.60
2023-05-09T21:51:12.614Z,2.00
2023-05-09T21:53:39.678Z,2.13
2023-05-09T21:56:08.097Z,2.20
2023-05-09T21:58:35.368Z,1.97
2023-05-09T22:01:02.465Z,2.47
2023-05-09T22:03:32.011Z,2.20
2023-05-09T22:05:59.146Z,2.00
2023-05-09T22:08:26.201Z,2.30
2023-05-09T22:10:53.281Z,2.40
2023-05-09T22:13:20.542Z,2.20
2023-05-09T22:15:47.679Z,2.10
2023-05-09T22:18:14.799Z,2.40
2023-05-09T22:20:42.188Z,2.10
2023-05-09T22:23:09.329Z,2.27
2023-05-09T22:25:36.377Z,2.20
2023-05-09T22:28:03.501Z,2.17
2023-05-09T22:30:30.882Z,2.30
2023-05-09T22:32:58.565Z,1.90
2023-05-09T22:35:25.840Z,2.07
2023-05-09T22:37:52.924Z,2.00
2023-05-09T22:40:20.016Z,2.10
2023-05-09T22:42:47.613Z,2.03
2023-05-09T22:45:14.759Z,2.20
2023-05-09T22:47:41.844Z,1.97
2023-05-09T22:50:09.286Z,1.80
2023-05-09T22:52:36.419Z,1.90
2023-05-09T22:55:03.507Z,2.10
2023-05-09T22:57:31.037Z,1.93
2023-05-09T22:59:58.127Z,1.93
2023-05-09T23:02:26.001Z,1.93
2023-05-09T23:04:53.129Z,2.27
2023-05-09T23:07:20.195Z,2.10
2023-05-09T23:09:47.245Z,2.10
2023-05-09T23:12:14.754Z,1.90
2023-05-09T23:14:41.837Z,1.87
2023-05-09T23:17:08.865Z,2.10
2023-05-09T23:19:36.081Z,1.70
2023-05-09T23:22:03.158Z,1.80
2023-05-09T23:24:30.326Z,1.87
2023-05-09T23:26:58.125Z,2.00
2023-05-09T23:29:25.292Z,1.90
2023-05-09T23:31:52.402Z,1.90
2023-05-09T23:34:19.849Z,1.77
2023-05-09T23:36:46.946Z,1.90
2023-05-09T23:39:14.037Z,1.60
2023-05-09T23:41:41.372Z,2.03
2023-05-09T23:44:08.480Z,1.70
2023-05-09T23:46:35.591Z,2.00
2023-05-09T23:49:02.896Z,1.80
2023-05-09T23:51:29.949Z,1.83
2023-05-09T23:53:57.026Z,2.13
2023-05-09T23:56:25.377Z,1.90
2023-05-09T23:58:52.433Z,1.70
